Terminal Aerodrome Forecast
Issued by NWS Duluth, MN

Home | Current Version | Previous Version | Text Only | Print | Product List | Glossary On
Versions: 1 2 3 4 5 6 7 8 9 10 11 12 13 14 15 16 17 18
000
FTUS43 KDLH 281143
TAFDLH
TAF
KDLH 281143Z 2812/2912 22007KT P6SM OVC005
      TEMPO 2812/2813 OVC003
     FM281500 18005KT P6SM SCT010 BKN250
     FM281800 17008KT P6SM SCT250
     FM290400 14007KT P6SM VCSH SCT035 BKN150
     FM290600 12006KT 5SM -SHRA VCTS BKN035CB OVC100=

USA.gov is the U.S. government's official web portal to all federal, state and local government web resources and services.